06:37
Airports
History
Links
Donate
Help me keep this website running!
Information on this page is community maintained and may be outdated or inaccurate and is intended for simulator navigating and reference only!
Always use approved charts for navigating.
ROTM
FUTENMA MCAS
FUTENMA MCAS (ROTM)
Ginowan-shi, Okinawa Prefecture, Japan (901)
(C)6
Lat/Lng:26° 16' 26.88" N / 127° 45' 22.56" E
26.274132 / 127.756267
Elevation:247'ft 75mMSL
ID / ICAO:ROTM
Runways:1
Longest:(06-24) 2800.3m 9187ft Asphalt
Airport use:Military,
Controlled:Yes
Distance To
Airport ID:
Airport Radio Frequencies
Ground: 122.8
Tower: 123.6
Nearby VORs <50NM
Nearby NDBs
METARUpdated 08-26-16 05:58 GMT
Altimeter: 29.52
Visibility: 6.2 statute miles
Wind: 9 knots (020°)
Temp: 31°c 88°f
Humidity: 89.2%

METAR: ROTM 260558Z 02009KT 9999 FEW050 SCT080 31/29 A2952 RMK CB DSIPTD SLP981 60009 T03110283 10317 20289 58008

(Powered by phpweather)
Runway 06 / 24
Dimensions:2800.3 x 45.7 m / 9187' x 150' ft
Surface:Asphalt
Edge Lights:High intensity
Runway 06 [A]Runway 24 [B]
Heading:054° True 234° True
Lat:
Lng:
26° 16' 0.78"N
127° 44' 41.24"E
26° 16' 52.97"N
127° 46' 3.88"E
APP Lights:SALS
TouchD. point:Yes, lighted
Google Map
Nearby Airports
(C) KADENA AB 5.7 NM
RODN (WX) N
(C) NAHA 8.7 NM
ROAH (WX) SW 231°
(C) Kerama 29.6 NM
ROKR WSW 255°
(C) IE JIMA 31.0 NM
RORE N
(C) IE SHIMA AUX AB 31.3 NM
RODE N
(C) Aguni 38.5 NM
RORA NW 304°
(C) KUMEJIMA 64.9 NM
ROKJ (WX) W 275°
VFR Chart
Flight Planning at SkyVector.com